Time;durP1;ratioP1;P1;durP2;ratioP2;P2;SDS_P1;SDS_P2;PMS_P1;PMS_P2;Temp;Humidity;BMP_temperature;BMP_pressure;BME280_temperature;BME280_humidity;BME280_pressure;Samples;Min_cycle;Max_cycle;Signal;HPM_P1;HPM_P2
2022/05/11 00:00:54;;;;;;;10.90;9.37;;;;;;;16.57;83.83;98184.09;5077090;28;20202;-70
2022/05/11 00:03:22;;;;;;;10.53;9.20;;;;;;;16.59;83.47;98182.75;5079703;28;20188;-70
2022/05/11 00:05:48;;;;;;;9.70;8.83;;;;;;;16.61;83.38;98177.16;5080091;28;20204;-70
2022/05/11 00:08:15;;;;;;;10.27;9.27;;;;;;;16.49;84.27;98177.31;5079664;28;20586;-70
2022/05/11 00:10:41;;;;;;;9.53;8.73;;;;;;;16.50;84.08;98178.91;5079930;28;20589;-70
2022/05/11 00:13:08;;;;;;;10.70;9.70;;;;;;;16.56;83.00;98171.72;5079759;28;20605;-70
2022/05/11 00:15:34;;;;;;;10.80;9.90;;;;;;;16.50;83.68;98180.78;5080045;28;20337;-70
2022/05/11 00:18:01;;;;;;;11.17;10.10;;;;;;;16.49;83.62;98171.94;5079876;28;20228;-70
2022/05/11 00:20:28;;;;;;;10.33;9.33;;;;;;;16.49;83.45;98171.13;5079970;28;20204;-70
2022/05/11 00:22:56;;;;;;;10.10;9.20;;;;;;;16.47;83.52;98168.69;5079556;28;20211;-70
2022/05/11 00:25:25;;;;;;;10.17;9.17;;;;;;;16.45;83.43;98170.00;5079850;28;20200;-70
2022/05/11 00:27:53;;;;;;;11.00;9.87;;;;;;;16.42;83.62;98168.63;5080105;28;20232;-70
2022/05/11 00:30:20;;;;;;;12.23;10.90;;;;;;;16.40;83.13;98168.09;5079823;28;20205;-71
2022/05/11 00:32:46;;;;;;;12.00;10.77;;;;;;;16.38;83.14;98170.16;5079851;28;20212;-70
2022/05/11 00:35:12;;;;;;;12.13;10.93;;;;;;;16.37;82.99;98157.03;5079530;28;20709;-70
2022/05/11 00:37:39;;;;;;;10.70;9.70;;;;;;;16.32;83.45;98163.13;5079720;28;20224;-70
2022/05/11 00:40:06;;;;;;;9.50;8.60;;;;;;;16.33;82.90;98164.75;5079685;28;20207;-70
2022/05/11 00:42:32;;;;;;;9.77;8.80;;;;;;;16.31;82.51;98160.69;5079626;28;20207;-70
2022/05/11 00:44:59;;;;;;;9.80;8.60;;;;;;;16.25;82.78;98165.22;5079710;28;20208;-71
2022/05/11 00:47:31;;;;;;;9.40;8.47;;;;;;;16.25;82.62;98159.03;5079667;28;20224;-70
2022/05/11 00:50:43;;;;;;;11.73;9.13;;;;;;;16.20;82.60;98159.78;5079737;28;20199;-70
2022/05/11 00:53:13;;;;;;;9.60;8.70;;;;;;;16.08;83.42;98158.31;5077914;28;20303;-71
2022/05/11 00:55:48;;;;;;;10.87;8.97;;;;;;;16.08;83.32;98152.94;5079378;28;20231;-70
2022/05/11 00:58:26;;;;;;;10.07;9.10;;;;;;;15.99;83.95;98155.25;5079309;28;20702;-70
2022/05/11 01:00:53;;;;;;;9.43;7.90;;;;;;;16.00;82.65;98148.84;5079642;28;20214;-70
2022/05/11 01:03:45;;;;;;;10.07;8.33;;;;;;;15.99;83.43;98147.22;5079588;28;20250;-70
2022/05/11 01:06:13;;;;;;;8.30;7.57;;;;;;;15.94;83.51;98140.97;5079280;28;20632;-70
2022/05/11 01:08:40;;;;;;;7.60;6.97;;;;;;;16.01;81.42;98145.09;5079462;28;20224;-70
2022/05/11 01:11:08;;;;;;;8.37;7.63;;;;;;;15.93;82.42;98144.72;5079473;28;20224;-70
2022/05/11 01:13:35;;;;;;;7.93;7.23;;;;;;;15.93;82.79;98150.09;5075560;28;20204;-70
2022/05/11 01:16:02;;;;;;;8.40;7.60;;;;;;;15.86;83.63;98144.91;5075969;28;20601;-70
2022/05/11 01:18:30;;;;;;;8.17;7.47;;;;;;;15.86;83.79;98150.28;5076180;28;20224;-70
2022/05/11 01:20:57;;;;;;;8.33;7.57;;;;;;;15.91;82.89;98147.66;5076229;28;20197;-70
2022/05/11 01:23:32;;;;;;;7.87;7.17;;;;;;;15.96;82.65;98149.59;5074941;28;20205;-70
2022/05/11 01:25:58;;;;;;;8.30;7.50;;;;;;;15.95;82.51;98142.59;5075840;28;20224;-70
2022/05/11 01:28:25;;;;;;;8.57;7.80;;;;;;;15.93;82.79;98148.19;5076008;28;20239;-70
2022/05/11 01:31:00;;;;;;;8.73;7.90;;;;;;;15.90;83.39;98151.41;5075947;28;20307;-70
2022/05/11 01:33:26;;;;;;;9.13;8.37;;;;;;;15.86;82.96;98147.59;5076012;28;20199;-70
2022/05/11 01:36:03;;;;;;;8.63;7.83;;;;;;;15.81;83.25;98142.19;5075910;28;20205;-70
2022/05/11 01:38:41;;;;;;;8.97;8.17;;;;;;;15.75;83.92;98145.84;5074698;28;20563;-70
2022/05/11 01:41:12;;;;;;;8.63;7.93;;;;;;;15.70;84.40;98147.66;5075935;28;20195;-71
2022/05/11 01:43:41;;;;;;;8.47;7.77;;;;;;;15.63;84.50;98142.50;5074361;28;20695;-70
2022/05/11 01:46:08;;;;;;;8.47;7.77;;;;;;;15.60;84.65;98140.28;5075434;28;20214;-70
2022/05/11 01:48:35;;;;;;;9.67;8.03;;;;;;;15.61;84.34;98146.47;5075645;28;20224;-70
2022/05/11 01:51:02;;;;;;;8.93;8.23;;;;;;;15.57;85.27;98137.31;5075584;28;20405;-70
2022/05/11 01:53:29;;;;;;;8.93;8.07;;;;;;;15.54;85.03;98146.66;5075234;28;20212;-70
2022/05/11 01:55:56;;;;;;;8.57;7.60;;;;;;;15.50;85.45;98140.16;5075515;28;20208;-70
2022/05/11 01:58:23;;;;;;;8.90;8.07;;;;;;;15.49;85.09;98138.56;5075418;28;20225;-70
2022/05/11 02:00:50;;;;;;;9.60;8.70;;;;;;;15.48;85.27;98136.94;5075177;28;20668;-70
2022/05/11 02:03:18;;;;;;;9.13;8.43;;;;;;;15.47;85.29;98134.50;5075409;28;20201;-70
2022/05/11 02:08:30;;;;;;;8.90;8.20;;;;;;;15.43;86.49;98133.38;5075060;28;20211;-70
2022/05/11 02:10:57;;;;;;;10.13;9.13;;;;;;;15.52;85.58;98135.34;5075128;28;20243;-70
2022/05/11 02:13:24;;;;;;;9.80;9.00;;;;;;;15.45;86.67;98132.06;5075207;28;20208;-70
2022/05/11 02:15:50;;;;;;;10.57;9.57;;;;;;;15.44;87.03;98133.13;5074872;28;20200;-70
2022/05/11 02:18:17;;;;;;;11.00;9.53;;;;;;;15.51;86.02;98136.41;5074730;28;20707;-70
2022/05/11 02:20:44;;;;;;;11.40;9.23;;;;;;;15.47;86.30;98135.28;5075079;28;20209;-70
2022/05/11 02:23:15;;;;;;;9.60;8.70;;;;;;;15.45;86.64;98136.59;5074536;28;20224;-70
2022/05/11 02:25:47;;;;;;;10.43;9.53;;;;;;;15.46;86.74;98138.22;5074520;28;20199;-70
2022/05/11 02:28:15;;;;;;;9.80;8.90;;;;;;;15.52;85.73;98138.03;5074601;28;20231;-71
2022/05/11 02:30:43;;;;;;;11.03;9.90;;;;;;;15.44;86.94;98130.44;5074811;28;20228;-70
2022/05/11 02:33:10;;;;;;;9.53;8.63;;;;;;;15.48;86.17;98136.13;5074841;28;20204;-70
2022/05/11 02:35:38;;;;;;;10.43;9.53;;;;;;;15.53;86.04;98133.50;5074754;28;20207;-70
2022/05/11 02:38:12;;;;;;;10.00;9.07;;;;;;;15.46;86.81;98133.69;5074595;28;20227;-71
2022/05/11 02:40:40;;;;;;;10.13;9.23;;;;;;;15.48;86.86;98136.13;5074664;28;20196;-70
2022/05/11 02:43:08;;;;;;;10.13;9.13;;;;;;;15.36;87.34;98132.72;5074291;28;20219;-71
2022/05/11 02:45:36;;;;;;;12.80;10.40;;;;;;;15.34;87.55;98127.59;5074522;28;20206;-70
2022/05/11 02:48:03;;;;;;;11.00;9.83;;;;;;;15.34;87.91;98124.94;5074432;28;20240;-71
2022/05/11 02:50:33;;;;;;;13.40;10.37;;;;;;;15.32;87.69;98126.22;5074409;28;20200;-70
2022/05/11 02:53:02;;;;;;;11.13;10.10;;;;;;;15.23;88.55;98123.16;5074001;28;20228;-71
2022/05/11 02:55:29;;;;;;;11.50;10.40;;;;;;;15.23;88.88;98128.50;5074047;28;20209;-70
2022/05/11 02:57:55;;;;;;;11.80;10.70;;;;;;;15.26;88.78;98129.88;5074223;28;20220;-70
2022/05/11 03:00:22;;;;;;;13.43;11.03;;;;;;;15.30;88.64;98123.81;5074239;28;20204;-70
2022/05/11 03:02:48;;;;;;;12.63;10.83;;;;;;;15.24;89.36;98127.44;5073912;28;20203;-70
2022/05/11 03:05:16;;;;;;;11.67;10.57;;;;;;;15.23;89.12;98125.84;5074145;28;20226;-70
2022/05/11 03:07:42;;;;;;;11.17;10.10;;;;;;;15.26;89.42;98128.03;5074347;28;20258;-70
2022/05/11 03:10:10;;;;;;;11.23;10.20;;;;;;;15.27;89.00;98123.47;5073680;28;20694;-70
2022/05/11 03:12:38;;;;;;;11.70;10.50;;;;;;;15.26;88.53;98133.38;5073753;28;20228;-70
2022/05/11 03:15:07;;;;;;;9.90;9.00;;;;;;;15.25;88.94;98125.59;5074745;28;20204;-70
2022/05/11 03:17:33;;;;;;;11.53;10.27;;;;;;;15.25;88.59;98125.59;5073431;28;20715;-70
2022/05/11 03:19:59;;;;;;;11.53;9.43;;;;;;;15.19;88.95;98121.22;5073671;28;20230;-70
2022/05/11 03:22:26;;;;;;;10.00;9.10;;;;;;;15.20;88.74;98123.63;5073663;28;20204;-70
2022/05/11 03:24:52;;;;;;;10.23;9.33;;;;;;;15.13;88.94;98119.50;5073788;28;20219;-70
2022/05/11 03:27:19;;;;;;;9.97;9.07;;;;;;;15.06;89.71;98121.56;5073621;28;20224;-70
2022/05/11 03:29:45;;;;;;;10.27;9.27;;;;;;;15.06;88.95;98119.69;5074442;28;20209;-70
2022/05/11 03:34:55;;;;;;;10.30;9.07;;;;;;;15.12;89.29;98120.56;5073088;28;20294;-71
2022/05/11 03:37:22;;;;;;;12.07;9.00;;;;;;;15.13;88.42;98109.63;5074133;28;20224;-70
2022/05/11 03:39:49;;;;;;;9.63;8.73;;;;;;;15.09;88.88;98121.88;5073418;28;20204;-70
2022/05/11 03:42:19;;;;;;;9.43;8.47;;;;;;;15.15;88.71;98114.75;5073213;28;20676;-70
2022/05/11 03:44:46;;;;;;;10.40;9.30;;;;;;;15.23;88.14;98112.44;5073465;28;20204;-70
2022/05/11 03:47:12;;;;;;;9.70;8.70;;;;;;;15.13;88.67;98117.66;5073420;28;20307;-70
2022/05/11 03:49:39;;;;;;;9.63;8.67;;;;;;;15.14;88.33;98119.28;5073098;28;20209;-70
2022/05/11 03:52:06;;;;;;;10.07;9.07;;;;;;;15.09;88.64;98113.03;5072849;28;20663;-70
2022/05/11 03:54:32;;;;;;;10.10;9.20;;;;;;;15.11;88.57;98114.41;5073372;28;20566;-70
2022/05/11 03:56:58;;;;;;;9.83;8.90;;;;;;;15.01;89.27;98119.59;5073000;28;20671;-70
2022/05/11 03:59:25;;;;;;;9.33;8.43;;;;;;;14.93;90.78;98122.69;5073022;28;20562;-70
2022/05/11 04:01:51;;;;;;;9.70;8.87;;;;;;;14.91;90.42;98114.13;5072960;28;20196;-70
2022/05/11 04:04:17;;;;;;;9.63;8.63;;;;;;;15.05;88.30;98111.88;5072932;28;20208;-70
2022/05/11 04:06:45;;;;;;;8.60;7.80;;;;;;;15.05;88.32;98109.22;5072789;28;20663;-70
2022/05/11 04:09:12;;;;;;;10.17;8.33;;;;;;;15.06;88.91;98113.53;5072720;28;20256;-70
2022/05/11 04:11:38;;;;;;;8.97;8.07;;;;;;;15.05;89.17;98112.72;5073373;28;20235;-70
2022/05/11 04:14:04;;;;;;;9.80;8.90;;;;;;;15.06;89.20;98110.84;5073070;28;20211;-70
2022/05/11 04:16:31;;;;;;;9.30;8.57;;;;;;;15.06;89.61;98108.97;5072922;28;20211;-70
2022/05/11 04:18:59;;;;;;;9.37;8.47;;;;;;;15.07;88.76;98120.50;5073455;28;20228;-70
2022/05/11 04:21:26;;;;;;;9.50;8.53;;;;;;;15.21;87.45;98122.59;5072606;28;20568;-70
2022/05/11 04:23:52;;;;;;;9.50;8.53;;;;;;;15.19;88.44;98113.19;5072668;28;20215;-70
2022/05/11 04:26:18;;;;;;;9.00;8.27;;;;;;;15.14;89.13;98123.81;5072784;28;20200;-70
2022/05/11 04:28:45;;;;;;;9.70;8.67;;;;;;;15.15;87.68;98120.09;5072582;28;20231;-71
2022/05/11 04:31:13;;;;;;;9.67;8.77;;;;;;;15.23;87.54;98123.16;5072623;28;20663;-70
2022/05/11 04:33:40;;;;;;;9.30;8.50;;;;;;;15.18;87.85;98120.41;5072654;28;20209;-70
2022/05/11 04:36:07;;;;;;;12.60;8.70;;;;;;;15.23;87.08;98117.78;5072926;28;20212;-70
2022/05/11 04:38:33;;;;;;;9.13;8.33;;;;;;;15.30;86.74;98115.75;5072424;28;20719;-70
2022/05/11 04:41:00;;;;;;;9.10;8.40;;;;;;;15.31;87.16;98116.56;5072976;28;20204;-70
2022/05/11 04:43:27;;;;;;;9.50;8.67;;;;;;;15.30;86.87;98121.13;5072945;28;20299;-70
2022/05/11 04:45:53;;;;;;;9.80;8.80;;;;;;;15.32;86.79;98115.50;5072718;28;20227;-70
2022/05/11 04:48:19;;;;;;;10.90;8.50;;;;;;;15.45;85.44;98115.16;5074741;28;20595;-70
2022/05/11 04:50:47;;;;;;;9.43;8.63;;;;;;;15.49;85.22;98125.16;5076390;28;20204;-71
2022/05/11 04:53:16;;;;;;;8.47;7.40;;;;;;;15.59;83.19;98122.59;5075695;28;20856;-71
2022/05/11 04:55:44;;;;;;;8.60;7.73;;;;;;;15.58;83.54;98123.66;5075973;28;20211;-70
2022/05/11 04:58:10;;;;;;;8.80;7.93;;;;;;;15.66;83.88;98122.41;5075953;28;20228;-70
2022/05/11 05:00:37;;;;;;;8.70;7.90;;;;;;;15.69;83.71;98130.75;5076299;28;20201;-70
2022/05/11 05:03:09;;;;;;;11.30;8.33;;;;;;;15.87;82.13;98129.66;5076190;28;20231;-70
2022/05/11 05:05:35;;;;;;;12.80;8.10;;;;;;;15.84;82.12;98130.94;5076056;28;20184;-70
2022/05/11 05:08:02;;;;;;;7.80;7.03;;;;;;;15.90;81.65;98123.78;5075664;28;20256;-70
2022/05/11 05:10:28;;;;;;;9.17;8.10;;;;;;;15.98;80.81;98128.69;5075599;28;20216;-70
2022/05/11 05:12:55;;;;;;;8.33;7.13;;;;;;;15.88;82.24;98128.59;5075618;28;20604;-70
2022/05/11 05:15:21;;;;;;;9.10;8.20;;;;;;;15.97;80.67;98127.88;5075848;28;20201;-70
2022/05/11 05:17:52;;;;;;;8.70;7.87;;;;;;;16.06;81.87;98130.94;5075687;28;20232;-70
2022/05/11 05:20:18;;;;;;;8.40;7.50;;;;;;;16.17;79.71;98130.78;5074750;28;20193;-71
2022/05/11 05:22:45;;;;;;;9.90;7.50;;;;;;;16.30;79.29;98138.44;5075684;28;20303;-70
2022/05/11 05:25:11;;;;;;;7.90;6.30;;;;;;;16.46;78.41;98128.72;5075542;28;20200;-70
2022/05/11 05:27:38;;;;;;;6.63;6.03;;;;;;;16.61;77.68;98132.31;5075351;28;20234;-70
2022/05/11 05:32:48;;;;;;;5.03;4.63;;;;;;;16.99;74.52;98139.34;5074895;28;20568;-70
2022/05/11 05:35:17;;;;;;;5.93;5.33;;;;;;;17.05;75.97;98139.13;5074942;28;20212;-70
2022/05/11 05:37:44;;;;;;;4.67;4.27;;;;;;;17.35;71.35;98142.00;5075120;28;20224;-70
2022/05/11 05:40:11;;;;;;;5.63;4.13;;;;;;;17.47;71.10;98142.63;5074959;28;20218;-70
2022/05/11 05:42:38;;;;;;;4.20;3.90;;;;;;;17.70;70.52;98141.44;5074881;28;20204;-70
2022/05/11 05:45:06;;;;;;;4.30;4.00;;;;;;;17.77;68.30;98147.34;5075260;28;20208;-70
2022/05/11 05:47:32;;;;;;;3.90;3.60;;;;;;;17.97;67.92;98136.69;5075257;28;20703;-71
2022/05/11 05:49:59;;;;;;;4.40;3.87;;;;;;;18.02;67.17;98134.03;5075299;28;20201;-70
2022/05/11 05:52:26;;;;;;;4.53;3.80;;;;;;;18.09;67.84;98132.69;5074635;28;20225;-70
2022/05/11 05:54:56;;;;;;;6.77;4.00;;;;;;;18.16;68.16;98127.88;5074888;28;20208;-70
2022/05/11 05:57:22;;;;;;;3.97;3.67;;;;;;;18.39;66.69;98119.34;5074659;28;20224;-70
2022/05/11 05:59:48;;;;;;;4.43;4.00;;;;;;;18.49;67.03;98129.31;5074758;28;20272;-70
2022/05/11 06:02:16;;;;;;;4.37;3.80;;;;;;;18.66;66.87;98136.06;5074890;28;20296;-70
2022/05/11 06:04:45;;;;;;;4.10;3.80;;;;;;;18.80;66.02;98139.03;5074787;28;20303;-70
2022/05/11 06:07:12;;;;;;;5.03;4.63;;;;;;;18.90;66.65;98128.25;5074822;28;20311;-70
2022/05/11 06:09:39;;;;;;;4.33;3.90;;;;;;;18.98;65.29;98135.78;5074610;28;20547;-70
2022/05/11 06:12:12;;;;;;;5.13;3.57;;;;;;;19.10;64.73;98133.63;5074123;28;20227;-70
2022/05/11 06:14:39;;;;;;;4.27;3.97;;;;;;;19.02;64.68;98136.88;5074209;28;20189;-70
2022/05/11 06:17:14;;;;;;;5.30;4.30;;;;;;;19.04;64.37;98137.41;5074169;28;20215;-70
2022/05/11 06:19:41;;;;;;;5.73;4.00;;;;;;;19.18;65.65;98136.59;5074147;28;20188;-70
2022/05/11 06:22:07;;;;;;;8.80;4.23;;;;;;;19.24;65.00;98135.56;5074123;28;20205;-70
2022/05/11 06:24:33;;;;;;;4.47;4.07;;;;;;;19.38;64.64;98144.69;5073863;28;20208;-70
2022/05/11 06:27:00;;;;;;;4.33;4.00;;;;;;;19.48;64.61;98140.34;5073794;28;20216;-70
2022/05/11 06:29:27;;;;;;;4.00;3.70;;;;;;;19.57;64.79;98133.31;5075043;28;20209;-71
2022/05/11 06:31:53;;;;;;;4.50;4.03;;;;;;;19.73;63.97;98137.56;5074424;28;20205;-70
2022/05/11 06:34:19;;;;;;;4.47;4.00;;;;;;;19.81;62.42;98137.78;5074130;28;20201;-70
2022/05/11 06:36:46;;;;;;;4.60;4.00;;;;;;;19.88;62.36;98135.63;5074104;28;20704;-70
2022/05/11 06:39:12;;;;;;;4.73;4.17;;;;;;;19.85;62.81;98135.38;5073690;28;20221;-71
2022/05/11 06:41:38;;;;;;;4.13;3.50;;;;;;;19.96;61.44;98129.66;5073826;28;20665;-70
2022/05/11 06:44:05;;;;;;;3.73;3.27;;;;;;;20.01;61.10;98137.72;5073726;28;20627;-70
2022/05/11 06:46:33;;;;;;;4.00;3.47;;;;;;;20.07;61.39;98135.81;5073882;28;20204;-71
2022/05/11 06:48:59;;;;;;;5.53;3.67;;;;;;;20.14;61.23;98131.75;5073712;28;20726;-71
2022/05/11 06:51:26;;;;;;;3.67;3.33;;;;;;;20.35;59.22;98132.47;5073973;28;20208;-70
2022/05/11 06:59:24;;;;;;;4.87;3.40;;;;;;;20.40;59.23;98121.63;5073793;28;20689;-71
2022/05/11 07:01:57;;;;;;;4.00;3.60;;;;;;;20.43;58.16;98121.06;5073556;28;20204;-70
2022/05/11 07:04:24;;;;;;;3.53;3.33;;;;;;;20.50;60.22;98113.44;5073474;28;20196;-70
2022/05/11 07:06:58;;;;;;;3.80;3.50;;;;;;;20.59;60.49;98120.69;5073475;28;20234;-71
2022/05/11 07:09:27;;;;;;;3.90;3.60;;;;;;;20.77;56.96;98119.19;5073142;28;20208;-70
2022/05/11 07:14:38;;;;;;;3.80;3.50;;;;;;;21.10;57.23;98112.97;5073722;28;20543;-70
2022/05/11 07:17:05;;;;;;;3.50;3.20;;;;;;;21.20;55.82;98112.91;5073680;28;20209;-70
2022/05/11 07:19:33;;;;;;;3.10;2.90;;;;;;;21.25;56.41;98116.34;5073533;28;20204;-70
2022/05/11 07:22:00;;;;;;;4.10;3.30;;;;;;;21.45;55.41;98121.56;5073392;28;20231;-71
2022/05/11 07:24:26;;;;;;;3.60;3.23;;;;;;;21.39;55.12;98122.69;5073925;28;20603;-70
2022/05/11 07:26:54;;;;;;;3.83;3.40;;;;;;;21.47;54.80;98118.56;5073173;28;20204;-70
2022/05/11 07:29:21;;;;;;;4.67;3.30;;;;;;;21.50;55.35;98109.88;5073150;28;20682;-71
2022/05/11 07:31:47;;;;;;;4.57;3.40;;;;;;;21.55;53.40;98113.34;5073356;28;20265;-70
2022/05/11 07:34:14;;;;;;;4.13;2.73;;;;;;;21.72;52.25;98107.47;5072959;28;20582;-70
2022/05/11 07:36:41;;;;;;;3.60;3.03;;;;;;;21.91;51.78;98109.13;5073303;28;20208;-70
2022/05/11 07:39:08;;;;;;;2.97;2.78;;;;;;;21.84;51.90;98116.78;5073018;28;20220;-70
2022/05/11 07:41:34;;;;;;;2.70;2.50;;;;;;;21.93;52.16;98115.06;5072999;28;20667;-70
2022/05/11 07:44:00;;;;;;;6.10;2.90;;;;;;;21.94;51.71;98105.06;5072987;28;20245;-70
2022/05/11 07:46:33;;;;;;;2.78;2.58;;;;;;;22.02;50.73;98113.31;5073871;28;20208;-70
2022/05/11 07:49:00;;;;;;;3.20;2.97;;;;;;;22.13;49.47;98109.41;5073166;28;20232;-70
2022/05/11 07:51:27;;;;;;;2.88;2.60;;;;;;;22.23;50.43;98101.13;5073319;28;20200;-70
2022/05/11 07:53:53;;;;;;;2.63;2.42;;;;;;;22.32;49.63;98112.91;5072875;28;20228;-71
2022/05/11 08:01:47;;;;;;;2.85;2.65;;;;;;;22.50;49.28;98108.63;5072817;28;20175;-70
2022/05/11 08:04:14;;;;;;;3.60;2.80;;;;;;;22.68;48.51;98100.47;5073102;28;20223;-70
2022/05/11 08:06:40;;;;;;;3.92;2.65;;;;;;;22.74;50.09;98091.16;5073172;28;20208;-71
2022/05/11 08:09:07;;;;;;;3.47;2.80;;;;;;;22.78;47.98;98096.78;5073066;28;20224;-70
2022/05/11 08:11:34;;;;;;;6.00;2.40;;;;;;;22.76;46.21;98096.28;5073080;28;20546;-70
2022/05/11 08:14:00;;;;;;;5.93;3.22;;;;;;;22.78;46.84;98102.19;5073107;28;20248;-70
2022/05/11 08:16:28;;;;;;;4.13;2.88;;;;;;;22.81;46.96;98097.03;5073190;28;20305;-71
2022/05/11 08:18:54;;;;;;;6.80;3.08;;;;;;;22.93;46.02;98093.84;5072993;28;20228;-70
2022/05/11 08:21:21;;;;;;;3.63;2.85;;;;;;;22.88;46.40;98102.06;5074102;28;20216;-70
2022/05/11 08:23:49;;;;;;;3.45;2.60;;;;;;;23.04;46.76;98097.97;5077098;28;20250;-70
2022/05/11 08:26:16;;;;;;;2.83;2.63;;;;;;;23.09;45.42;98092.47;5076986;28;20204;-70
2022/05/11 08:28:42;;;;;;;3.00;2.65;;;;;;;23.10;45.42;98091.34;5076925;28;20307;-70
2022/05/11 08:33:52;;;;;;;2.80;2.60;;;;;;;23.23;45.58;98091.44;5076833;28;20280;-70
2022/05/11 08:36:22;;;;;;;3.22;2.95;;;;;;;23.17;44.85;98089.88;5076809;28;20208;-71
2022/05/11 08:38:50;;;;;;;4.40;2.70;;;;;;;23.36;45.21;98084.41;5076471;28;20236;-71
2022/05/11 08:41:38;;;;;;;3.08;2.72;;;;;;;23.47;44.35;98086.63;5076618;28;20211;-70
2022/05/11 08:44:19;;;;;;;4.03;2.92;;;;;;;23.45;44.50;98079.88;5076144;28;20549;-70
2022/05/11 08:46:52;;;;;;;3.30;3.05;;;;;;;23.47;45.42;98083.91;5076438;28;20204;-70
2022/05/11 08:49:26;;;;;;;3.58;2.80;;;;;;;23.68;46.74;98089.75;5076419;28;20200;-70
2022/05/11 08:52:00;;;;;;;3.88;2.80;;;;;;;23.92;46.37;98091.16;5076066;28;20188;-70
2022/05/11 08:54:50;;;;;;;4.72;2.63;;;;;;;23.89;44.71;98074.66;5076019;28;20216;-70
2022/05/11 08:57:28;;;;;;;3.95;2.95;;;;;;;23.94;44.92;98078.09;5076095;28;20228;-71
2022/05/11 09:00:00;;;;;;;3.33;3.03;;;;;;;23.94;44.95;98074.56;5076315;28;20212;-70
2022/05/11 09:02:32;;;;;;;4.95;3.13;;;;;;;23.98;44.03;98070.97;5075910;28;20192;-70
2022/05/11 09:05:01;;;;;;;5.50;2.85;;;;;;;24.17;43.95;98076.22;5076094;28;20193;-70
2022/05/11 09:07:32;;;;;;;4.35;3.30;;;;;;;24.20;44.27;98062.06;5076166;28;20224;-70
2022/05/11 09:09:58;;;;;;;3.28;2.97;;;;;;;24.26;43.58;98072.50;5075655;28;20185;-70
2022/05/11 09:12:26;;;;;;;5.60;3.25;;;;;;;24.23;42.98;98070.38;5075690;28;20219;-70
2022/05/11 09:14:59;;;;;;;4.38;3.13;;;;;;;24.43;43.81;98066.41;5075457;28;20256;-70
2022/05/11 09:17:44;;;;;;;7.05;3.42;;;;;;;24.45;44.82;98061.44;5076040;28;20349;-70
2022/05/11 09:20:13;;;;;;;5.68;3.05;;;;;;;24.59;42.69;98057.59;5075608;28;20189;-70
2022/05/11 09:23:02;;;;;;;6.47;2.88;;;;;;;24.62;43.66;98065.16;5075787;28;20208;-70
2022/05/11 09:25:36;;;;;;;3.30;3.00;;;;;;;24.70;43.62;98060.88;5075780;28;20188;-70
2022/05/11 09:28:22;;;;;;;3.15;2.92;;;;;;;25.06;43.03;98073.28;5075420;28;20732;-70
2022/05/11 09:31:09;;;;;;;3.08;2.88;;;;;;;24.94;43.60;98067.63;5075343;28;20188;-70
2022/05/11 09:33:38;;;;;;;3.42;3.13;;;;;;;25.11;43.46;98062.25;5075434;28;20209;-70
2022/05/11 09:36:05;;;;;;;3.85;3.42;;;;;;;25.08;42.07;98056.63;5075398;28;20273;-71
2022/05/11 09:38:46;;;;;;;5.57;3.38;;;;;;;25.05;42.39;98060.78;5075064;28;20224;-70
2022/05/11 09:41:18;;;;;;;8.95;3.72;;;;;;;25.44;42.65;98060.03;5075028;28;20189;-71
2022/05/11 09:43:46;;;;;;;3.88;3.03;;;;;;;25.24;42.41;98063.31;5075124;28;20656;-70
2022/05/11 09:46:27;;;;;;;3.78;3.30;;;;;;;25.35;42.48;98053.75;5075263;28;20208;-70
2022/05/11 09:49:25;;;;;;;4.65;3.30;;;;;;;25.38;41.65;98050.41;5075295;28;20239;-71
2022/05/11 09:51:58;;;;;;;4.70;3.60;;;;;;;25.78;42.80;98054.72;5074914;28;20254;-71
2022/05/11 09:54:51;;;;;;;9.60;3.78;;;;;;;25.52;41.87;98042.94;5075039;28;20208;-71
2022/05/11 09:57:26;;;;;;;4.00;3.38;;;;;;;25.53;43.31;98047.28;5074405;28;20307;-70
2022/05/11 09:59:56;;;;;;;4.07;3.50;;;;;;;25.69;43.29;98043.00;5074600;28;20285;-70
2022/05/11 10:02:42;;;;;;;4.25;3.78;;;;;;;25.72;41.81;98036.91;5074407;28;20228;-70
2022/05/11 10:05:16;;;;;;;4.15;3.75;;;;;;;25.52;42.65;98032.06;5074619;28;20189;-71
2022/05/11 10:07:53;;;;;;;5.20;3.80;;;;;;;25.81;42.22;98030.38;5073890;28;20585;-70
2022/05/11 10:10:35;;;;;;;3.65;3.30;;;;;;;26.08;42.62;98027.41;5074891;28;20195;-70
2022/05/11 10:13:17;;;;;;;5.28;3.40;;;;;;;25.80;41.68;98025.25;5074243;28;20291;-70
2022/05/11 10:24:44;;;;;;;3.65;3.35;;;;;;;25.64;41.61;98024.88;5074214;28;20168;-71
2022/05/11 10:27:36;;;;;;;3.78;3.20;;;;;;;25.72;40.87;98005.03;5074291;28;20278;-70
2022/05/11 10:30:16;;;;;;;3.47;3.17;;;;;;;25.97;41.89;98008.97;5073294;28;20189;-70
2022/05/11 10:32:50;;;;;;;3.60;3.20;;;;;;;25.86;40.82;98002.16;5074296;28;20208;-70
2022/05/11 10:35:23;;;;;;;4.30;3.38;;;;;;;25.88;40.87;97989.84;5073868;28;20284;-70
2022/05/11 10:37:56;;;;;;;3.45;3.20;;;;;;;25.98;40.55;97980.59;5073727;28;20234;-70
2022/05/11 10:40:31;;;;;;;3.55;3.25;;;;;;;26.20;40.36;97983.16;5073851;28;20204;-70
2022/05/11 10:43:04;;;;;;;3.70;3.40;;;;;;;26.52;41.15;97977.19;5074080;28;20299;-71
2022/05/11 10:45:58;;;;;;;3.95;3.60;;;;;;;26.61;39.28;97975.28;5072829;28;20201;-71
2022/05/11 10:48:35;;;;;;;5.05;3.50;;;;;;;26.52;38.17;97975.28;5072715;28;20235;-71
2022/05/11 10:51:39;;;;;;;4.93;3.47;;;;;;;26.59;38.73;97985.72;5073689;28;20284;-72
2022/05/11 10:54:20;;;;;;;3.75;3.45;;;;;;;26.70;40.15;97967.88;5068794;28;20672;-72
2022/05/11 10:57:05;;;;;;;3.20;3.00;;;;;;;26.77;37.64;97963.53;5074057;28;20192;-71
2022/05/11 10:59:52;;;;;;;4.35;3.15;;;;;;;26.93;36.87;97952.88;5072893;28;20193;-71
2022/05/11 11:02:49;;;;;;;4.35;3.72;;;;;;;26.88;36.92;97962.06;5073881;28;20242;-72
2022/05/11 11:05:46;;;;;;;5.03;2.72;;;;;;;26.95;37.68;97964.28;5073339;28;20184;-71
2022/05/11 11:08:15;;;;;;;3.28;2.95;;;;;;;27.14;35.78;97956.50;5073262;28;20220;-71
2022/05/11 11:11:05;;;;;;;3.25;3.05;;;;;;;26.96;35.02;97949.53;5073396;28;20577;-71
2022/05/11 11:13:42;;;;;;;3.60;3.05;;;;;;;26.85;35.23;97949.06;5073513;28;20223;-72
2022/05/11 11:16:12;;;;;;;3.22;2.88;;;;;;;26.96;36.01;97944.06;5072627;28;20622;-71
2022/05/11 11:18:43;;;;;;;5.78;3.20;;;;;;;27.23;36.30;97934.66;5071674;28;20702;-72
2022/05/11 11:21:11;;;;;;;6.43;2.92;;;;;;;27.14;34.97;97940.13;5073428;28;20199;-72
2022/05/11 11:23:46;;;;;;;5.07;2.88;;;;;;;27.35;36.29;97941.00;5073085;28;20205;-71
2022/05/11 11:26:48;;;;;;;4.43;3.08;;;;;;;27.24;35.22;97939.78;5073011;28;20283;-71
2022/05/11 11:29:15;;;;;;;3.00;2.70;;;;;;;27.52;36.52;97913.59;5072621;28;20214;-71
2022/05/11 11:32:04;;;;;;;6.72;3.10;;;;;;;27.53;34.64;97917.91;5072792;28;20740;-72
2022/05/11 11:34:35;;;;;;;5.22;2.65;;;;;;;27.47;33.93;97927.44;5073767;28;20217;-71
2022/05/11 11:37:31;;;;;;;3.17;2.75;;;;;;;27.52;33.86;97924.53;5073157;28;20185;-71
2022/05/11 11:39:59;;;;;;;10.30;3.05;;;;;;;27.17;33.85;97931.28;5072728;28;20215;-72
2022/05/11 11:42:36;;;;;;;4.03;2.90;;;;;;;26.98;33.87;97917.25;5072601;28;20348;-72
2022/05/11 11:45:08;;;;;;;4.90;3.03;;;;;;;27.23;35.30;97930.00;5072635;28;20207;-72
2022/05/11 11:47:38;;;;;;;4.63;2.83;;;;;;;27.25;34.69;97916.81;5072889;28;20220;-71
2022/05/11 11:50:10;;;;;;;3.13;2.70;;;;;;;27.23;36.33;97913.63;5072748;28;20205;-71
2022/05/11 11:52:41;;;;;;;3.20;3.00;;;;;;;27.27;35.52;97903.66;5072672;28;20219;-71
2022/05/11 11:55:30;;;;;;;3.55;3.10;;;;;;;26.92;35.46;97904.91;5072638;28;20228;-72
2022/05/11 11:58:12;;;;;;;3.08;2.78;;;;;;;27.12;35.86;97898.72;5072403;28;20319;-72
2022/05/11 12:00:47;;;;;;;4.65;2.88;;;;;;;27.23;34.81;97893.72;5072614;28;20619;-72
2022/05/11 12:03:22;;;;;;;6.60;3.08;;;;;;;27.09;35.02;97888.47;5073127;28;20226;-71
2022/05/11 12:05:53;;;;;;;6.95;3.20;;;;;;;26.99;33.97;97894.28;5071883;28;20192;-72
2022/05/11 12:16:57;;;;;;;5.10;2.75;;;;;;;27.47;33.87;97880.22;5072803;28;20198;-72
2022/05/11 12:19:36;;;;;;;3.50;3.00;;;;;;;27.66;34.17;97875.13;5072959;28;20200;-71
2022/05/11 12:22:15;;;;;;;5.55;2.90;;;;;;;27.85;32.18;97865.31;5072751;28;20198;-72
2022/05/11 12:24:45;;;;;;;3.00;2.60;;;;;;;27.66;33.02;97875.13;5073323;28;20199;-72
2022/05/11 12:27:27;;;;;;;4.50;2.70;;;;;;;27.87;31.02;97870.44;5072627;28;20224;-71
2022/05/11 12:29:59;;;;;;;2.80;2.60;;;;;;;27.79;30.57;97876.75;5072973;28;20184;-71